地図

経路データ

SID SEASON NUMBER BASIN SUBBASIN NAME ISO_TIME NATURE LAT LON WMO_WIND WMO_PRES WMO_AGENCY TRACK_TYPE DIST2LAND LANDFALL IFLAG USA_AGENCY USA_ATCF_ID USA_LAT USA_LON USA_RECORD USA_STATUS USA_WIND USA_PRES USA_SSHS USA_R34_NE USA_R34_SE USA_R34_SW USA_R34_NW USA_R50_NE USA_R50_SE USA_R50_SW USA_R50_NW USA_R64_NE USA_R64_SE USA_R64_SW USA_R64_NW USA_POCI USA_ROCI USA_RMW USA_EYE TOKYO_LAT TOKYO_LON TOKYO_GRADE TOKYO_WIND TOKYO_PRES TOKYO_R50_DIR TOKYO_R50_LONG TOKYO_R50_SHORT TOKYO_R30_DIR TOKYO_R30_LONG TOKYO_R30_SHORT TOKYO_LAND CMA_LAT CMA_LON CMA_CAT CMA_WIND CMA_PRES HKO_LAT HKO_LON HKO_CAT HKO_WIND HKO_PRES NEWDELHI_LAT NEWDELHI_LON NEWDELHI_GRADE NEWDELHI_WIND NEWDELHI_PRES NEWDELHI_CI NEWDELHI_DP NEWDELHI_POCI REUNION_LAT REUNION_LON REUNION_TYPE REUNION_WIND REUNION_PRES REUNION_TNUM REUNION_CI REUNION_RMW REUNION_R34_NE REUNION_R34_SE REUNION_R34_SW REUNION_R34_NW REUNION_R50_NE REUNION_R50_SE REUNION_R50_SW REUNION_R50_NW REUNION_R64_NE REUNION_R64_SE REUNION_R64_SW REUNION_R64_NW BOM_LAT BOM_LON BOM_TYPE BOM_WIND BOM_PRES BOM_TNUM BOM_CI BOM_RMW BOM_R34_NE BOM_R34_SE BOM_R34_SW BOM_R34_NW BOM_R50_NE BOM_R50_SE BOM_R50_SW BOM_R50_NW BOM_R64_NE BOM_R64_SE BOM_R64_SW BOM_R64_NW BOM_ROCI BOM_POCI BOM_EYE BOM_POS_METHOD BOM_PRES_METHOD NADI_LAT NADI_LON NADI_CAT NADI_WIND NADI_PRES WELLINGTON_LAT WELLINGTON_LON WELLINGTON_WIND WELLINGTON_PRES DS824_LAT DS824_LON DS824_STAGE DS824_WIND DS824_PRES TD9636_LAT TD9636_LON TD9636_STAGE TD9636_WIND TD9636_PRES TD9635_LAT TD9635_LON TD9635_WIND TD9635_PRES TD9635_ROCI NEUMANN_LAT NEUMANN_LON NEUMANN_CLASS NEUMANN_WIND NEUMANN_PRES MLC_LAT MLC_LON MLC_CLASS MLC_WIND MLC_PRES USA_GUST BOM_GUST BOM_GUST_PER REUNION_GUST REUNION_GUST_PER USA_SEAHGT USA_SEARAD_NE USA_SEARAD_SE USA_SEARAD_SW USA_SEARAD_NW STORM_SPEED STORM_DIR
1945214N14302 1945 42 NA NA NOT_NAMED 1945-08-02 00:00:00 TS 13.6000 -58.3000 35 hurdat_atl main 437 432 O_____________ hurdat_atl AL031945 13.6000 -58.3000 TS 35 0 8 313
1945214N14302 1945 42 NA NA NOT_NAMED 1945-08-02 03:00:00 TS 13.8626 -58.5848 main 443 436 P_____________ AL031945 13.8626 -58.5848 TS 37 0 8 311
1945214N14302 1945 42 NA NA NOT_NAMED 1945-08-02 06:00:00 TS 14.1000 -58.9000 40 hurdat_atl main 443 438 O_____________ hurdat_atl AL031945 14.1000 -58.9000 TS 40 0 8 303
1945214N14302 1945 42 NA NA NOT_NAMED 1945-08-02 09:00:00 TS 14.2999 -59.2702 main 443 438 P_____________ AL031945 14.2999 -59.2702 TS 40 0 9 297
1945214N14302 1945 42 NA CS NOT_NAMED 1945-08-02 12:00:00 TS 14.5000 -59.7000 40 hurdat_atl main 448 445 O_____________ hurdat_atl AL031945 14.5000 -59.7000 TS 40 0 10 297
1945214N14302 1945 42 NA CS NOT_NAMED 1945-08-02 15:00:00 TS 14.7348 -60.1627 main 456 456 P_____________ AL031945 14.7348 -60.1627 TS 42 0 11 297
1945214N14302 1945 42 NA CS NOT_NAMED 1945-08-02 18:00:00 TS 15.0000 -60.7000 45 hurdat_atl main 482 481 O_____________ hurdat_atl AL031945 15.0000 -60.7000 TS 45 0 13 297
1945214N14302 1945 42 NA CS NOT_NAMED 1945-08-02 21:00:00 TS 15.3000 -61.3275 main 515 481 P_____________ AL031945 15.3000 -61.3275 TS 45 0 14 296
1945214N14302 1945 42 NA CS NOT_NAMED 1945-08-03 00:00:00 TS 15.6000 -62.0000 45 hurdat_atl main 481 417 O_____________ hurdat_atl AL031945 15.6000 -62.0000 TS 45 0 14 294
1945214N14302 1945 42 NA CS NOT_NAMED 1945-08-03 03:00:00 TS 15.8572 -62.6428 main 409 339 P_____________ AL031945 15.8572 -62.6428 TS 47 0 13 292
1945214N14302 1945 42 NA CS NOT_NAMED 1945-08-03 06:00:00 TS 16.1000 -63.3000 50 hurdat_atl main 339 269 O_____________ hurdat_atl AL031945 16.1000 -63.3000 TS 50 0 14 291
1945214N14302 1945 42 NA CS NOT_NAMED 1945-08-03 09:00:00 TS 16.3648 -63.9850 main 261 195 P_____________ AL031945 16.3648 -63.9850 TS 50 0 14 290
1945214N14302 1945 42 NA CS NOT_NAMED 1945-08-03 12:00:00 TS 16.6000 -64.7000 50 hurdat_atl main 195 140 O_____________ hurdat_atl AL031945 16.6000 -64.7000 TS 50 0 15 286
1945214N14302 1945 42 NA CS NOT_NAMED 1945-08-03 15:00:00 TS 16.7650 -65.4577 main 138 111 P_____________ AL031945 16.7650 -65.4577 TS 50 0 15 282
1945214N14302 1945 42 NA CS NOT_NAMED 1945-08-03 18:00:00 TS 16.9000 -66.2000 50 hurdat_atl main 111 101 O_____________ hurdat_atl AL031945 16.9000 -66.2000 TS 50 0 14 282
1945214N14302 1945 42 NA CS NOT_NAMED 1945-08-03 21:00:00 TS 17.0422 -66.8727 main 100 79 P_____________ AL031945 17.0422 -66.8727 TS 50 0 13 284
1945214N14302 1945 42 NA CS NOT_NAMED 1945-08-04 00:00:00 TS 17.2000 -67.5000 50 hurdat_atl main 84 84 O_____________ hurdat_atl AL031945 17.2000 -67.5000 TS 50 0 12 286
1945214N14302 1945 42 NA CS NOT_NAMED 1945-08-04 03:00:00 TS 17.3847 -68.1002 main 103 67 P_____________ AL031945 17.3847 -68.1002 TS 50 0 12 289
1945214N14302 1945 42 NA CS NOT_NAMED 1945-08-04 06:00:00 TS 17.6000 -68.7000 50 hurdat_atl main 67 54 O_____________ hurdat_atl AL031945 17.6000 -68.7000 TS 50 0 13 291
1945214N14302 1945 42 NA CS NOT_NAMED 1945-08-04 09:00:00 TS 17.8349 -69.3427 main 69 23 P_____________ AL031945 17.8349 -69.3427 TS 50 0 13 292
1945214N14302 1945 42 NA CS NOT_NAMED 1945-08-04 12:00:00 TS 18.1000 -70.0000 50 hurdat_atl main 23 0 O_____________ hurdat_atl AL031945 18.1000 -70.0000 TS 50 0 14 294
1945214N14302 1945 42 NA CS NOT_NAMED 1945-08-04 15:00:00 TS 18.3929 -70.6520 main 0 0 P_____________ AL031945 18.3929 -70.6520 TS 40 0 14 296
1945214N14302 1945 42 NA NA NOT_NAMED 1945-08-04 18:00:00 TS 18.7000 -71.3000 30 hurdat_atl main 0 O_____________ hurdat_atl AL031945 18.7000 -71.3000 TD 30 -1 14 297

IBTrACS Databaseについて

本データベースは、米国NOAAが公開する1842年以降の世界の熱帯低気圧のベストトラックデータアーカイブInternational Best Track Archive for Climate Stewardship (IBTrACS)を、ウェブで閲覧しやすい形式に変換したものです。

最終更新日:2021-10-19